Time,TemperatureF,DewpointF,PressureIn,WindDirection,WindDirectionDegrees,WindSpeedMPH,WindSpeedGustMPH,Humidity,HourlyPrecipIn,Conditions,Clouds,dailyrainin,SolarRadiationWatts/m^2,SoftwareType,DateUTC
2013-11-08 00:03:00,43.0,38.0,-100.00,ENE,59,0.0,1.0,84,0.00,,,0.00,0.000000,,2013-11-08 06:03:00,
2013-11-08 00:13:00,43.0,38.0,-100.00,ENE,59,0.0,1.0,84,0.00,,,0.00,0.000000,,2013-11-08 06:13:00,
2013-11-08 00:23:00,43.0,38.0,-100.00,ENE,59,0.0,1.0,84,0.00,,,0.00,0.000000,,2013-11-08 06:23:00,
2013-11-08 00:32:00,42.0,38.0,-100.00,East,84,0.0,0.0,86,0.00,,,0.00,0.000000,,2013-11-08 06:32:00,
2013-11-08 00:52:00,42.0,38.0,-100.00,East,84,0.0,0.0,86,0.00,,,0.00,0.000000,,2013-11-08 06:52:00,
2013-11-08 01:02:00,42.0,38.0,-100.00,East,84,0.0,0.0,86,0.00,,,0.00,0.000000,,2013-11-08 07:02:00,
2013-11-08 01:12:00,42.0,38.0,-100.00,East,84,0.0,0.0,86,0.00,,,0.00,0.000000,,2013-11-08 07:12:00,
2013-11-08 01:22:00,42.0,38.0,-100.00,East,84,0.0,0.0,86,0.00,,,0.00,0.000000,,2013-11-08 07:22:00,
2013-11-08 01:32:00,41.0,37.0,-100.00,ESE,105,0.0,0.0,87,0.00,,,0.00,0.000000,,2013-11-08 07:32:00,
2013-11-08 01:52:00,41.0,37.0,-100.00,ESE,105,0.0,0.0,87,0.00,,,0.00,0.000000,,2013-11-08 07:52:00,
2013-11-08 02:02:00,41.0,37.0,-100.00,ESE,105,0.0,0.0,87,0.00,,,0.00,0.000000,,2013-11-08 08:02:00,
2013-11-08 02:12:00,41.0,37.0,-100.00,ESE,105,0.0,0.0,87,0.00,,,0.00,0.000000,,2013-11-08 08:12:00,
2013-11-08 02:22:00,41.0,37.0,-100.00,ESE,105,0.0,0.0,87,0.00,,,0.00,0.000000,,2013-11-08 08:22:00,
2013-11-08 02:32:00,40.0,37.0,-100.00,East,89,0.0,0.0,88,0.00,,,0.00,0.000000,,2013-11-08 08:32:00,
2013-11-08 02:52:00,40.0,37.0,-100.00,East,89,0.0,0.0,88,0.00,,,0.00,0.000000,,2013-11-08 08:52:00,
2013-11-08 03:03:00,40.0,37.0,-100.00,East,89,0.0,0.0,88,0.00,,,0.00,0.000000,,2013-11-08 09:03:00,
2013-11-08 03:12:00,40.0,37.0,-100.00,East,89,0.0,0.0,88,0.00,,,0.00,0.000000,,2013-11-08 09:12:00,
2013-11-08 03:22:00,40.0,37.0,-100.00,East,89,0.0,0.0,88,0.00,,,0.00,0.000000,,2013-11-08 09:22:00,
2013-11-08 03:32:00,40.0,37.0,-100.00,East,85,0.0,0.0,88,0.00,,,0.00,0.000000,,2013-11-08 09:32:00,
2013-11-08 03:54:00,40.0,37.0,-100.00,East,85,0.0,0.0,88,0.00,,,0.00,0.000000,,2013-11-08 09:54:00,
2013-11-08 04:03:00,40.0,37.0,-100.00,East,85,0.0,0.0,88,0.00,,,0.00,0.000000,,2013-11-08 10:03:00,
2013-11-08 04:12:00,40.0,37.0,-100.00,East,85,0.0,0.0,88,0.00,,,0.00,0.000000,,2013-11-08 10:12:00,
2013-11-08 04:23:00,40.0,37.0,-100.00,East,85,0.0,0.0,88,0.00,,,0.00,0.000000,,2013-11-08 10:23:00,
2013-11-08 04:32:00,39.0,36.0,-100.00,West,269,0.0,0.0,88,0.00,,,0.00,0.000000,,2013-11-08 10:32:00,
2013-11-08 04:53:00,39.0,36.0,-100.00,West,269,0.0,0.0,88,0.00,,,0.00,0.000000,,2013-11-08 10:53:00,
2013-11-08 05:02:00,39.0,36.0,-100.00,West,269,0.0,0.0,88,0.00,,,0.00,0.000000,,2013-11-08 11:02:00,
2013-11-08 05:12:00,39.0,36.0,-100.00,West,269,0.0,0.0,88,0.00,,,0.00,0.000000,,2013-11-08 11:12:00,
2013-11-08 05:22:00,39.0,36.0,-100.00,West,269,0.0,0.0,88,0.00,,,0.00,0.000000,,2013-11-08 11:22:00,
2013-11-08 05:32:00,39.0,36.0,-100.00,NE,53,0.0,0.0,89,0.00,,,0.00,0.000000,,2013-11-08 11:32:00,
2013-11-08 05:52:00,39.0,36.0,-100.00,NE,53,0.0,0.0,89,0.00,,,0.00,0.000000,,2013-11-08 11:52:00,
2013-11-08 06:02:00,39.0,36.0,-100.00,NE,53,0.0,0.0,89,0.00,,,0.00,0.000000,,2013-11-08 12:02:00,
2013-11-08 06:11:00,39.0,36.0,-100.00,NE,53,0.0,0.0,89,0.00,,,0.00,0.000000,,2013-11-08 12:11:00,
2013-11-08 06:21:00,39.0,36.0,-100.00,NE,53,0.0,0.0,89,0.00,,,0.00,0.000000,,2013-11-08 12:21:00,
2013-11-08 06:32:00,41.0,38.0,-100.00,East,79,0.0,0.0,89,0.00,,,0.00,1.000000,,2013-11-08 12:32:00,
2013-11-08 06:52:00,41.0,38.0,-100.00,East,79,0.0,0.0,89,0.00,,,0.00,1.000000,,2013-11-08 12:52:00,
2013-11-08 07:01:00,41.0,38.0,-100.00,East,79,0.0,0.0,89,0.00,,,0.00,1.000000,,2013-11-08 13:01:00,
2013-11-08 07:11:00,41.0,38.0,-100.00,East,79,0.0,0.0,89,0.00,,,0.00,1.000000,,2013-11-08 13:11:00,
2013-11-08 07:21:00,41.0,38.0,-100.00,East,79,0.0,0.0,89,0.00,,,0.00,1.000000,,2013-11-08 13:21:00,
2013-11-08 07:32:00,42.0,38.0,-100.00,NE,44,0.0,0.0,86,0.00,,,0.00,28.000000,,2013-11-08 13:32:00,
2013-11-08 07:52:00,42.0,38.0,-100.00,NE,44,0.0,0.0,86,0.00,,,0.00,28.000000,,2013-11-08 13:52:00,
2013-11-08 08:02:00,42.0,38.0,-100.00,NE,44,0.0,0.0,86,0.00,,,0.00,28.000000,,2013-11-08 14:02:00,
2013-11-08 08:11:00,42.0,38.0,-100.00,NE,44,0.0,0.0,86,0.00,,,0.00,28.000000,,2013-11-08 14:11:00,
2013-11-08 08:22:00,42.0,38.0,-100.00,NE,44,0.0,0.0,86,0.00,,,0.00,28.000000,,2013-11-08 14:22:00,
2013-11-08 08:32:00,45.0,38.0,-100.00,ENE,67,3.0,5.0,77,0.00,,,0.00,114.000000,,2013-11-08 14:32:00,
2013-11-08 08:52:00,45.0,38.0,-100.00,ENE,67,3.0,5.0,77,0.00,,,0.00,114.000000,,2013-11-08 14:52:00,
2013-11-08 09:01:00,45.0,38.0,-100.00,ENE,67,3.0,5.0,77,0.00,,,0.00,114.000000,,2013-11-08 15:01:00,
2013-11-08 09:11:00,45.0,38.0,-100.00,ENE,67,3.0,5.0,77,0.00,,,0.00,114.000000,,2013-11-08 15:11:00,
2013-11-08 09:22:00,45.0,38.0,-100.00,ENE,67,3.0,5.0,77,0.00,,,0.00,114.000000,,2013-11-08 15:22:00,
2013-11-08 09:32:00,52.0,38.0,-100.00,ENE,69,5.0,9.0,59,0.00,,,0.00,276.000000,,2013-11-08 15:32:00,
2013-11-08 09:53:00,52.0,38.0,-100.00,ENE,69,5.0,9.0,59,0.00,,,0.00,276.000000,,2013-11-08 15:53:00,
2013-11-08 10:03:00,52.0,38.0,-100.00,ENE,69,5.0,9.0,59,0.00,,,0.00,276.000000,,2013-11-08 16:03:00,
2013-11-08 10:13:00,52.0,38.0,-100.00,ENE,69,5.0,9.0,59,0.00,,,0.00,276.000000,,2013-11-08 16:13:00,
2013-11-08 10:23:00,52.0,38.0,-100.00,ENE,69,5.0,9.0,59,0.00,,,0.00,276.000000,,2013-11-08 16:23:00,
2013-11-08 10:32:00,59.0,38.0,-100.00,East,96,3.0,10.0,45,0.00,,,0.00,602.000000,,2013-11-08 16:32:00,
2013-11-08 10:53:00,59.0,38.0,-100.00,East,96,3.0,10.0,45,0.00,,,0.00,602.000000,,2013-11-08 16:53:00,
2013-11-08 11:02:00,59.0,38.0,-100.00,East,96,3.0,10.0,45,0.00,,,0.00,602.000000,,2013-11-08 17:02:00,
2013-11-08 11:12:00,59.0,38.0,-100.00,East,96,3.0,10.0,45,0.00,,,0.00,602.000000,,2013-11-08 17:12:00,
2013-11-08 11:22:00,59.0,38.0,-100.00,East,96,3.0,10.0,45,0.00,,,0.00,602.000000,,2013-11-08 17:22:00,
2013-11-08 11:32:00,61.0,37.0,-100.00,East,86,6.0,14.0,41,0.00,,,0.00,689.000000,,2013-11-08 17:32:00,
2013-11-08 11:53:00,61.0,37.0,-100.00,East,86,6.0,14.0,41,0.00,,,0.00,689.000000,,2013-11-08 17:53:00,
2013-11-08 12:02:00,61.0,37.0,-100.00,East,86,6.0,14.0,41,0.00,,,0.00,689.000000,,2013-11-08 18:02:00,
2013-11-08 12:12:00,61.0,37.0,-100.00,East,86,6.0,14.0,41,0.00,,,0.00,689.000000,,2013-11-08 18:12:00,
2013-11-08 12:22:00,61.0,37.0,-100.00,East,86,6.0,14.0,41,0.00,,,0.00,689.000000,,2013-11-08 18:22:00,
2013-11-08 12:32:00,62.0,37.0,-100.00,ESE,107,1.0,13.0,40,0.00,,,0.00,536.000000,,2013-11-08 18:32:00,
2013-11-08 12:53:00,62.0,37.0,-100.00,ESE,107,1.0,13.0,40,0.00,,,0.00,536.000000,,2013-11-08 18:53:00,
2013-11-08 13:02:00,62.0,37.0,-100.00,ESE,107,1.0,13.0,40,0.00,,,0.00,536.000000,,2013-11-08 19:02:00,
2013-11-08 13:12:00,62.0,37.0,-100.00,ESE,107,1.0,13.0,40,0.00,,,0.00,536.000000,,2013-11-08 19:12:00,
2013-11-08 13:22:00,62.0,37.0,-100.00,ESE,107,1.0,13.0,40,0.00,,,0.00,536.000000,,2013-11-08 19:22:00,
2013-11-08 13:32:00,63.0,36.0,-100.00,ENE,75,2.0,10.0,37,0.00,,,0.00,465.000000,,2013-11-08 19:32:00,
2013-11-08 13:53:00,63.0,36.0,-100.00,ENE,75,2.0,10.0,37,0.00,,,0.00,465.000000,,2013-11-08 19:53:00,
2013-11-08 14:02:00,63.0,36.0,-100.00,ENE,75,2.0,10.0,37,0.00,,,0.00,465.000000,,2013-11-08 20:02:00,
2013-11-08 14:12:00,63.0,36.0,-100.00,ENE,75,2.0,10.0,37,0.00,,,0.00,465.000000,,2013-11-08 20:12:00,
2013-11-08 14:22:00,63.0,36.0,-100.00,ENE,75,2.0,10.0,37,0.00,,,0.00,465.000000,,2013-11-08 20:22:00,
2013-11-08 14:32:00,65.0,37.0,-100.00,ENE,73,4.0,12.0,35,0.00,,,0.00,509.000000,,2013-11-08 20:32:00,
2013-11-08 15:12:00,65.0,37.0,-100.00,ENE,73,4.0,12.0,35,0.00,,,0.00,509.000000,,2013-11-08 21:12:00,
2013-11-08 15:22:00,65.0,37.0,-100.00,ENE,73,4.0,12.0,35,0.00,,,0.00,509.000000,,2013-11-08 21:22:00,
2013-11-08 15:32:00,64.0,37.0,-100.00,ENE,77,0.0,8.0,36,0.00,,,0.00,338.000000,,2013-11-08 21:32:00,
2013-11-08 15:54:00,64.0,37.0,-100.00,ENE,77,0.0,8.0,36,0.00,,,0.00,338.000000,,2013-11-08 21:54:00,
2013-11-08 16:04:00,64.0,37.0,-100.00,ENE,77,0.0,8.0,36,0.00,,,0.00,338.000000,,2013-11-08 22:04:00,
2013-11-08 16:13:00,64.0,37.0,-100.00,ENE,77,0.0,8.0,36,0.00,,,0.00,338.000000,,2013-11-08 22:13:00,
2013-11-08 16:24:00,64.0,37.0,-100.00,ENE,77,0.0,8.0,36,0.00,,,0.00,338.000000,,2013-11-08 22:24:00,
2013-11-08 16:32:00,62.0,40.0,-100.00,NNE,23,0.0,0.0,45,0.00,,,0.00,164.000000,,2013-11-08 22:32:00,
2013-11-08 16:53:00,62.0,40.0,-100.00,NNE,23,0.0,0.0,45,0.00,,,0.00,164.000000,,2013-11-08 22:53:00,
2013-11-08 17:03:00,62.0,40.0,-100.00,NNE,23,0.0,0.0,45,0.00,,,0.00,164.000000,,2013-11-08 23:03:00,
2013-11-08 17:12:00,62.0,40.0,-100.00,NNE,23,0.0,0.0,45,0.00,,,0.00,164.000000,,2013-11-08 23:12:00,
2013-11-08 17:22:00,62.0,40.0,-100.00,NNE,23,0.0,0.0,45,0.00,,,0.00,164.000000,,2013-11-08 23:22:00,
2013-11-08 17:32:00,54.0,44.0,-100.00,NNE,28,0.0,0.0,70,0.00,,,0.00,24.000000,,2013-11-08 23:32:00,
2013-11-08 17:53:00,54.0,44.0,-100.00,NNE,28,0.0,0.0,70,0.00,,,0.00,24.000000,,2013-11-08 23:53:00,
2013-11-08 18:02:00,54.0,44.0,-100.00,NNE,28,0.0,0.0,70,0.00,,,0.00,24.000000,,2013-11-09 00:02:00,
2013-11-08 18:12:00,54.0,44.0,-100.00,NNE,28,0.0,0.0,70,0.00,,,0.00,24.000000,,2013-11-09 00:12:00,
2013-11-08 18:22:00,54.0,44.0,-100.00,NNE,28,0.0,0.0,70,0.00,,,0.00,24.000000,,2013-11-09 00:22:00,
2013-11-08 18:32:00,50.0,44.0,-100.00,NE,46,0.0,0.0,80,0.00,,,0.00,0.000000,,2013-11-09 00:32:00,
2013-11-08 18:52:00,50.0,44.0,-100.00,NE,46,0.0,0.0,80,0.00,,,0.00,0.000000,,2013-11-09 00:52:00,
2013-11-08 19:02:00,50.0,44.0,-100.00,NE,46,0.0,0.0,80,0.00,,,0.00,0.000000,,2013-11-09 01:02:00,
2013-11-08 19:11:00,50.0,44.0,-100.00,NE,46,0.0,0.0,80,0.00,,,0.00,0.000000,,2013-11-09 01:11:00,
2013-11-08 19:22:00,50.0,44.0,-100.00,NE,46,0.0,0.0,80,0.00,,,0.00,0.000000,,2013-11-09 01:22:00,
2013-11-08 19:32:00,50.0,44.0,-100.00,NNE,12,0.0,0.0,79,0.00,,,0.00,0.000000,,2013-11-09 01:32:00,
2013-11-08 19:52:00,50.0,44.0,-100.00,NNE,12,0.0,0.0,79,0.00,,,0.00,0.000000,,2013-11-09 01:52:00,
2013-11-08 20:02:00,50.0,44.0,-100.00,NNE,12,0.0,0.0,79,0.00,,,0.00,0.000000,,2013-11-09 02:02:00,
2013-11-08 20:12:00,50.0,44.0,-100.00,NNE,12,0.0,0.0,79,0.00,,,0.00,0.000000,,2013-11-09 02:12:00,
2013-11-08 20:22:00,50.0,44.0,-100.00,NNE,12,0.0,0.0,79,0.00,,,0.00,0.000000,,2013-11-09 02:22:00,
2013-11-08 20:32:00,50.0,44.0,-100.00,NE,43,0.0,2.0,80,0.00,,,0.00,0.000000,,2013-11-09 02:32:00,
2013-11-08 20:52:00,50.0,44.0,-100.00,NE,43,0.0,2.0,80,0.00,,,0.00,0.000000,,2013-11-09 02:52:00,
2013-11-08 21:02:00,50.0,44.0,-100.00,NE,43,0.0,2.0,80,0.00,,,0.00,0.000000,,2013-11-09 03:02:00,
2013-11-08 21:12:00,50.0,44.0,-100.00,NE,43,0.0,2.0,80,0.00,,,0.00,0.000000,,2013-11-09 03:12:00,
2013-11-08 21:22:00,50.0,44.0,-100.00,NE,43,0.0,2.0,80,0.00,,,0.00,0.000000,,2013-11-09 03:22:00,
2013-11-08 21:32:00,49.0,43.0,-100.00,NE,49,0.0,0.0,80,0.00,,,0.00,0.000000,,2013-11-09 03:32:00,
2013-11-08 21:54:00,49.0,43.0,-100.00,NE,49,0.0,0.0,80,0.00,,,0.00,0.000000,,2013-11-09 03:54:00,
2013-11-08 22:04:00,49.0,43.0,-100.00,NE,49,0.0,0.0,80,0.00,,,0.00,0.000000,,2013-11-09 04:04:00,
2013-11-08 22:13:00,49.0,43.0,-100.00,NE,49,0.0,0.0,80,0.00,,,0.00,0.000000,,2013-11-09 04:13:00,
2013-11-08 22:23:00,49.0,43.0,-100.00,NE,49,0.0,0.0,80,0.00,,,0.00,0.000000,,2013-11-09 04:23:00,
2013-11-08 22:32:00,49.0,43.0,-100.00,NE,48,0.0,0.0,81,0.00,,,0.00,0.000000,,2013-11-09 04:32:00,
2013-11-08 22:53:00,49.0,43.0,-100.00,NE,48,0.0,0.0,81,0.00,,,0.00,0.000000,,2013-11-09 04:53:00,
2013-11-08 23:03:00,49.0,43.0,-100.00,NE,48,0.0,0.0,81,0.00,,,0.00,0.000000,,2013-11-09 05:03:00,
2013-11-08 23:13:00,49.0,43.0,-100.00,NE,48,0.0,0.0,81,0.00,,,0.00,0.000000,,2013-11-09 05:13:00,
2013-11-08 23:23:00,49.0,43.0,-100.00,NE,48,0.0,0.0,81,0.00,,,0.00,0.000000,,2013-11-09 05:23:00,
2013-11-08 23:32:00,49.0,43.0,-100.00,NE,45,0.0,0.0,79,0.00,,,0.00,0.000000,,2013-11-09 05:32:00,
2013-11-08 23:53:00,49.0,43.0,-100.00,NE,45,0.0,0.0,79,0.00,,,0.00,0.000000,,2013-11-09 05:53:00,